sensor_id;sensor_type;location;lat;lon;timestamp;P1;durP1;ratioP1;P2;durP2;ratioP2
60416;SDS011;46263;44.726;10.396;2023-08-20T07:57:17;14.55;;;11.45;;
60416;SDS011;46263;44.726;10.396;2023-08-20T07:59:43;13.93;;;10.98;;
60416;SDS011;46263;44.726;10.396;2023-08-20T08:02:08;12.88;;;11.00;;
60416;SDS011;46263;44.726;10.396;2023-08-20T08:04:34;16.35;;;11.45;;
60416;SDS011;46263;44.726;10.396;2023-08-20T08:07:00;13.95;;;10.70;;
60416;SDS011;46263;44.726;10.396;2023-08-20T08:09:27;11.85;;;10.00;;
60416;SDS011;46263;44.726;10.396;2023-08-20T08:11:56;12.85;;;10.10;;
60416;SDS011;46263;44.726;10.396;2023-08-20T08:14:22;17.75;;;10.68;;
60416;SDS011;46263;44.726;10.396;2023-08-20T08:16:48;10.48;;;9.45;;
60416;SDS011;46263;44.726;10.396;2023-08-20T08:19:13;10.13;;;9.00;;
60416;SDS011;46263;44.726;10.396;2023-08-20T08:21:39;10.38;;;8.68;;
60416;SDS011;46263;44.726;10.396;2023-08-20T08:24:06;10.38;;;8.90;;
60416;SDS011;46263;44.726;10.396;2023-08-20T08:26:33;11.57;;;9.48;;
60416;SDS011;46263;44.726;10.396;2023-08-20T08:29:00;9.88;;;8.85;;
60416;SDS011;46263;44.726;10.396;2023-08-20T08:31:26;10.90;;;9.48;;
60416;SDS011;46263;44.726;10.396;2023-08-20T08:33:51;10.57;;;8.63;;
60416;SDS011;46263;44.726;10.396;2023-08-20T08:36:16;15.52;;;8.95;;
60416;SDS011;46263;44.726;10.396;2023-08-20T08:38:42;10.27;;;8.60;;
60416;SDS011;46263;44.726;10.396;2023-08-20T08:41:10;9.35;;;8.45;;
60416;SDS011;46263;44.726;10.396;2023-08-20T08:43:37;10.00;;;8.98;;
60416;SDS011;46263;44.726;10.396;2023-08-20T08:46:08;8.95;;;8.15;;
60416;SDS011;46263;44.726;10.396;2023-08-20T08:48:39;12.38;;;8.48;;
60416;SDS011;46263;44.726;10.396;2023-08-20T08:51:06;9.00;;;8.00;;
60416;SDS011;46263;44.726;10.396;2023-08-20T08:53:32;14.38;;;7.97;;
60416;SDS011;46263;44.726;10.396;2023-08-20T08:55:58;8.65;;;7.63;;
60416;SDS011;46263;44.726;10.396;2023-08-20T08:58:24;8.63;;;7.85;;
60416;SDS011;46263;44.726;10.396;2023-08-20T09:00:50;9.32;;;8.20;;
60416;SDS011;46263;44.726;10.396;2023-08-20T09:03:15;9.70;;;7.90;;
60416;SDS011;46263;44.726;10.396;2023-08-20T09:05:48;9.18;;;7.97;;
60416;SDS011;46263;44.726;10.396;2023-08-20T09:08:20;8.32;;;7.43;;
60416;SDS011;46263;44.726;10.396;2023-08-20T09:10:49;8.13;;;7.32;;
60416;SDS011;46263;44.726;10.396;2023-08-20T09:13:16;8.77;;;7.95;;
60416;SDS011;46263;44.726;10.396;2023-08-20T09:15:42;8.27;;;7.43;;
60416;SDS011;46263;44.726;10.396;2023-08-20T09:18:10;8.30;;;7.60;;
60416;SDS011;46263;44.726;10.396;2023-08-20T09:20:36;8.52;;;7.90;;
60416;SDS011;46263;44.726;10.396;2023-08-20T09:23:02;9.15;;;7.45;;
60416;SDS011;46263;44.726;10.396;2023-08-20T09:25:28;8.88;;;7.97;;
60416;SDS011;46263;44.726;10.396;2023-08-20T09:27:54;9.18;;;8.38;;
60416;SDS011;46263;44.726;10.396;2023-08-20T09:30:20;8.55;;;7.85;;
60416;SDS011;46263;44.726;10.396;2023-08-20T09:32:45;8.77;;;7.50;;
60416;SDS011;46263;44.726;10.396;2023-08-20T09:35:27;11.35;;;8.23;;
60416;SDS011;46263;44.726;10.396;2023-08-20T09:37:58;8.68;;;7.78;;
60416;SDS011;46263;44.726;10.396;2023-08-20T09:40:24;10.82;;;8.15;;
60416;SDS011;46263;44.726;10.396;2023-08-20T09:42:49;9.35;;;8.43;;
60416;SDS011;46263;44.726;10.396;2023-08-20T09:45:19;7.95;;;7.15;;
60416;SDS011;46263;44.726;10.396;2023-08-20T09:47:45;8.70;;;7.88;;
60416;SDS011;46263;44.726;10.396;2023-08-20T09:50:19;8.52;;;7.68;;
60416;SDS011;46263;44.726;10.396;2023-08-20T09:53:11;9.40;;;8.50;;
60416;SDS011;46263;44.726;10.396;2023-08-20T09:55:38;10.13;;;7.63;;
60416;SDS011;46263;44.726;10.396;2023-08-20T09:58:06;8.80;;;7.93;;
60416;SDS011;46263;44.726;10.396;2023-08-20T10:00:32;9.45;;;7.57;;
60416;SDS011;46263;44.726;10.396;2023-08-20T10:02:58;9.32;;;7.65;;
60416;SDS011;46263;44.726;10.396;2023-08-20T10:05:24;8.60;;;7.80;;
60416;SDS011;46263;44.726;10.396;2023-08-20T10:07:50;8.45;;;7.60;;
60416;SDS011;46263;44.726;10.396;2023-08-20T10:10:17;8.07;;;7.32;;
60416;SDS011;46263;44.726;10.396;2023-08-20T10:12:43;8.75;;;7.85;;
60416;SDS011;46263;44.726;10.396;2023-08-20T10:15:10;8.23;;;7.43;;
60416;SDS011;46263;44.726;10.396;2023-08-20T10:17:40;8.55;;;7.75;;
60416;SDS011;46263;44.726;10.396;2023-08-20T10:20:07;7.85;;;7.05;;
60416;SDS011;46263;44.726;10.396;2023-08-20T10:22:36;11.23;;;7.80;;
60416;SDS011;46263;44.726;10.396;2023-08-20T10:25:10;8.60;;;7.80;;
60416;SDS011;46263;44.726;10.396;2023-08-20T10:27:40;7.97;;;7.18;;
60416;SDS011;46263;44.726;10.396;2023-08-20T10:30:11;8.38;;;7.63;;
60416;SDS011;46263;44.726;10.396;2023-08-20T10:32:43;7.35;;;6.65;;
60416;SDS011;46263;44.726;10.396;2023-08-20T10:35:12;7.78;;;6.97;;
60416;SDS011;46263;44.726;10.396;2023-08-20T10:37:40;7.90;;;7.10;;
60416;SDS011;46263;44.726;10.396;2023-08-20T10:46:36;9.27;;;8.40;;
60416;SDS011;46263;44.726;10.396;2023-08-20T10:48:40;8.80;;;7.55;;
60416;SDS011;46263;44.726;10.396;2023-08-20T10:51:10;7.50;;;6.80;;
60416;SDS011;46263;44.726;10.396;2023-08-20T10:53:37;7.45;;;6.80;;
60416;SDS011;46263;44.726;10.396;2023-08-20T10:56:21;10.35;;;7.22;;
60416;SDS011;46263;44.726;10.396;2023-08-20T10:58:47;8.95;;;7.50;;
60416;SDS011;46263;44.726;10.396;2023-08-20T11:01:13;8.40;;;7.60;;
60416;SDS011;46263;44.726;10.396;2023-08-20T11:03:46;8.55;;;6.97;;
60416;SDS011;46263;44.726;10.396;2023-08-20T11:06:13;11.95;;;6.32;;
60416;SDS011;46263;44.726;10.396;2023-08-20T11:08:39;8.52;;;7.78;;
60416;SDS011;46263;44.726;10.396;2023-08-20T11:11:06;12.05;;;7.47;;
60416;SDS011;46263;44.726;10.396;2023-08-20T11:13:33;7.78;;;6.60;;
60416;SDS011;46263;44.726;10.396;2023-08-20T11:16:00;7.53;;;6.82;;
60416;SDS011;46263;44.726;10.396;2023-08-20T11:18:27;7.50;;;6.82;;
60416;SDS011;46263;44.726;10.396;2023-08-20T11:20:53;7.70;;;6.90;;
60416;SDS011;46263;44.726;10.396;2023-08-20T11:23:19;7.65;;;6.78;;
60416;SDS011;46263;44.726;10.396;2023-08-20T11:25:45;8.20;;;7.50;;
60416;SDS011;46263;44.726;10.396;2023-08-20T11:28:10;7.80;;;6.90;;
60416;SDS011;46263;44.726;10.396;2023-08-20T11:30:36;8.95;;;6.55;;
60416;SDS011;46263;44.726;10.396;2023-08-20T11:33:01;10.00;;;7.18;;
60416;SDS011;46263;44.726;10.396;2023-08-20T11:35:27;9.93;;;7.57;;
60416;SDS011;46263;44.726;10.396;2023-08-20T11:37:53;7.68;;;7.03;;
60416;SDS011;46263;44.726;10.396;2023-08-20T11:40:22;7.65;;;6.95;;
60416;SDS011;46263;44.726;10.396;2023-08-20T11:42:48;7.75;;;6.47;;
60416;SDS011;46263;44.726;10.396;2023-08-20T11:45:13;7.35;;;6.65;;
60416;SDS011;46263;44.726;10.396;2023-08-20T11:47:40;6.68;;;6.07;;
60416;SDS011;46263;44.726;10.396;2023-08-20T11:50:06;7.75;;;6.70;;
60416;SDS011;46263;44.726;10.396;2023-08-20T11:52:32;7.65;;;6.95;;
60416;SDS011;46263;44.726;10.396;2023-08-20T11:54:59;6.88;;;6.25;;
60416;SDS011;46263;44.726;10.396;2023-08-20T11:57:28;7.45;;;6.78;;
60416;SDS011;46263;44.726;10.396;2023-08-20T11:59:55;9.07;;;7.10;;
60416;SDS011;46263;44.726;10.396;2023-08-20T12:02:24;7.32;;;6.63;;
60416;SDS011;46263;44.726;10.396;2023-08-20T12:04:54;7.18;;;6.57;;
60416;SDS011;46263;44.726;10.396;2023-08-20T12:07:24;6.63;;;6.05;;
60416;SDS011;46263;44.726;10.396;2023-08-20T12:09:53;13.73;;;6.53;;
60416;SDS011;46263;44.726;10.396;2023-08-20T12:12:20;6.53;;;6.03;;
60416;SDS011;46263;44.726;10.396;2023-08-20T12:14:46;7.43;;;6.40;;
60416;SDS011;46263;44.726;10.396;2023-08-20T12:17:11;9.02;;;6.93;;
60416;SDS011;46263;44.726;10.396;2023-08-20T12:19:37;6.25;;;5.75;;
60416;SDS011;46263;44.726;10.396;2023-08-20T12:22:02;6.65;;;6.03;;
60416;SDS011;46263;44.726;10.396;2023-08-20T12:24:28;6.63;;;6.13;;
60416;SDS011;46263;44.726;10.396;2023-08-20T12:26:54;7.18;;;6.35;;
60416;SDS011;46263;44.726;10.396;2023-08-20T12:29:20;6.38;;;5.70;;
60416;SDS011;46263;44.726;10.396;2023-08-20T12:31:45;6.20;;;5.70;;
60416;SDS011;46263;44.726;10.396;2023-08-20T12:34:11;6.30;;;5.80;;
60416;SDS011;46263;44.726;10.396;2023-08-20T12:36:36;7.90;;;6.78;;
60416;SDS011;46263;44.726;10.396;2023-08-20T12:39:02;8.30;;;7.18;;
60416;SDS011;46263;44.726;10.396;2023-08-20T12:41:29;10.10;;;7.40;;
60416;SDS011;46263;44.726;10.396;2023-08-20T12:43:54;10.13;;;6.97;;
60416;SDS011;46263;44.726;10.396;2023-08-20T12:46:20;6.95;;;6.32;;
60416;SDS011;46263;44.726;10.396;2023-08-20T12:48:45;7.80;;;6.78;;
60416;SDS011;46263;44.726;10.396;2023-08-20T12:51:11;7.32;;;6.40;;
60416;SDS011;46263;44.726;10.396;2023-08-20T12:53:39;6.57;;;5.93;;
60416;SDS011;46263;44.726;10.396;2023-08-20T12:56:05;7.15;;;6.47;;
60416;SDS011;46263;44.726;10.396;2023-08-20T12:58:30;7.10;;;6.40;;
60416;SDS011;46263;44.726;10.396;2023-08-20T13:00:55;10.65;;;6.90;;
60416;SDS011;46263;44.726;10.396;2023-08-20T13:03:21;6.60;;;6.00;;
60416;SDS011;46263;44.726;10.396;2023-08-20T13:05:47;6.10;;;5.60;;
60416;SDS011;46263;44.726;10.396;2023-08-20T13:08:13;6.03;;;5.47;;
60416;SDS011;46263;44.726;10.396;2023-08-20T13:10:39;6.50;;;5.60;;
60416;SDS011;46263;44.726;10.396;2023-08-20T13:13:06;6.50;;;5.60;;
60416;SDS011;46263;44.726;10.396;2023-08-20T13:15:35;6.53;;;5.68;;
60416;SDS011;46263;44.726;10.396;2023-08-20T13:18:00;8.38;;;5.07;;
60416;SDS011;46263;44.726;10.396;2023-08-20T13:20:27;5.45;;;4.95;;
60416;SDS011;46263;44.726;10.396;2023-08-20T13:22:53;5.63;;;5.13;;
60416;SDS011;46263;44.726;10.396;2023-08-20T13:25:18;6.60;;;5.32;;
60416;SDS011;46263;44.726;10.396;2023-08-20T13:27:46;5.97;;;5.20;;
60416;SDS011;46263;44.726;10.396;2023-08-20T13:30:12;5.80;;;5.35;;
60416;SDS011;46263;44.726;10.396;2023-08-20T13:32:38;5.53;;;5.03;;
60416;SDS011;46263;44.726;10.396;2023-08-20T13:35:11;5.95;;;5.28;;
60416;SDS011;46263;44.726;10.396;2023-08-20T13:37:37;6.13;;;5.63;;
60416;SDS011;46263;44.726;10.396;2023-08-20T13:40:02;6.35;;;5.70;;
60416;SDS011;46263;44.726;10.396;2023-08-20T13:42:33;5.85;;;5.22;;
60416;SDS011;46263;44.726;10.396;2023-08-20T13:44:58;7.03;;;6.45;;
60416;SDS011;46263;44.726;10.396;2023-08-20T13:47:23;9.88;;;6.13;;
60416;SDS011;46263;44.726;10.396;2023-08-20T13:49:49;8.50;;;6.50;;
60416;SDS011;46263;44.726;10.396;2023-08-20T13:52:14;6.82;;;5.97;;
60416;SDS011;46263;44.726;10.396;2023-08-20T13:54:40;8.85;;;5.68;;
60416;SDS011;46263;44.726;10.396;2023-08-20T13:57:05;5.65;;;5.15;;
60416;SDS011;46263;44.726;10.396;2023-08-20T13:59:31;6.82;;;5.75;;
60416;SDS011;46263;44.726;10.396;2023-08-20T14:01:57;7.07;;;6.20;;
60416;SDS011;46263;44.726;10.396;2023-08-20T14:04:23;20.50;;;6.60;;
60416;SDS011;46263;44.726;10.396;2023-08-20T14:06:49;7.55;;;6.05;;
60416;SDS011;46263;44.726;10.396;2023-08-20T14:09:14;6.70;;;6.20;;
60416;SDS011;46263;44.726;10.396;2023-08-20T14:11:42;7.72;;;5.57;;
60416;SDS011;46263;44.726;10.396;2023-08-20T14:14:07;7.53;;;5.93;;
60416;SDS011;46263;44.726;10.396;2023-08-20T14:16:33;8.05;;;6.03;;
60416;SDS011;46263;44.726;10.396;2023-08-20T14:18:58;6.70;;;5.40;;
60416;SDS011;46263;44.726;10.396;2023-08-20T14:21:23;5.90;;;5.35;;
60416;SDS011;46263;44.726;10.396;2023-08-20T14:23:49;6.10;;;5.60;;
60416;SDS011;46263;44.726;10.396;2023-08-20T14:26:14;7.22;;;5.90;;
60416;SDS011;46263;44.726;10.396;2023-08-20T14:28:40;7.03;;;5.90;;
60416;SDS011;46263;44.726;10.396;2023-08-20T14:31:08;7.35;;;6.63;;
60416;SDS011;46263;44.726;10.396;2023-08-20T14:33:34;6.97;;;5.90;;
60416;SDS011;46263;44.726;10.396;2023-08-20T14:35:59;6.97;;;5.60;;
60416;SDS011;46263;44.726;10.396;2023-08-20T14:38:25;6.68;;;6.07;;
60416;SDS011;46263;44.726;10.396;2023-08-20T14:40:50;8.02;;;5.85;;
60416;SDS011;46263;44.726;10.396;2023-08-20T14:43:16;7.32;;;5.90;;
60416;SDS011;46263;44.726;10.396;2023-08-20T14:45:41;6.68;;;5.97;;
60416;SDS011;46263;44.726;10.396;2023-08-20T14:48:07;6.97;;;6.20;;
60416;SDS011;46263;44.726;10.396;2023-08-20T14:50:33;6.30;;;5.70;;
60416;SDS011;46263;44.726;10.396;2023-08-20T14:52:59;6.85;;;5.90;;
60416;SDS011;46263;44.726;10.396;2023-08-20T14:55:24;6.75;;;6.00;;
60416;SDS011;46263;44.726;10.396;2023-08-20T14:57:50;6.63;;;6.03;;
60416;SDS011;46263;44.726;10.396;2023-08-20T15:00:15;7.10;;;5.70;;
60416;SDS011;46263;44.726;10.396;2023-08-20T15:02:45;7.50;;;5.75;;
60416;SDS011;46263;44.726;10.396;2023-08-20T15:05:11;6.72;;;5.90;;
60416;SDS011;46263;44.726;10.396;2023-08-20T15:07:37;6.85;;;6.25;;
60416;SDS011;46263;44.726;10.396;2023-08-20T15:10:04;6.20;;;5.60;;
60416;SDS011;46263;44.726;10.396;2023-08-20T15:12:33;6.40;;;5.63;;
60416;SDS011;46263;44.726;10.396;2023-08-20T15:14:59;6.40;;;5.80;;
60416;SDS011;46263;44.726;10.396;2023-08-20T15:17:34;8.77;;;6.25;;
60416;SDS011;46263;44.726;10.396;2023-08-20T15:20:00;6.65;;;6.13;;
60416;SDS011;46263;44.726;10.396;2023-08-20T15:22:26;6.88;;;6.28;;
60416;SDS011;46263;44.726;10.396;2023-08-20T15:24:52;6.70;;;6.10;;
60416;SDS011;46263;44.726;10.396;2023-08-20T15:27:18;6.95;;;5.78;;
60416;SDS011;46263;44.726;10.396;2023-08-20T15:29:43;10.63;;;6.05;;
60416;SDS011;46263;44.726;10.396;2023-08-20T15:32:10;11.38;;;6.60;;
60416;SDS011;46263;44.726;10.396;2023-08-20T15:34:36;6.90;;;5.97;;
60416;SDS011;46263;44.726;10.396;2023-08-20T15:37:02;6.65;;;6.05;;
60416;SDS011;46263;44.726;10.396;2023-08-20T15:39:27;6.55;;;5.90;;
60416;SDS011;46263;44.726;10.396;2023-08-20T15:41:53;6.60;;;6.00;;
60416;SDS011;46263;44.726;10.396;2023-08-20T15:44:18;6.38;;;5.78;;
60416;SDS011;46263;44.726;10.396;2023-08-20T15:46:44;8.55;;;5.57;;
60416;SDS011;46263;44.726;10.396;2023-08-20T15:49:09;5.78;;;5.28;;
60416;SDS011;46263;44.726;10.396;2023-08-20T15:51:35;6.43;;;5.82;;
60416;SDS011;46263;44.726;10.396;2023-08-20T15:54:01;7.30;;;6.63;;
60416;SDS011;46263;44.726;10.396;2023-08-20T15:56:27;7.10;;;6.47;;
60416;SDS011;46263;44.726;10.396;2023-08-20T15:58:53;7.85;;;6.10;;
60416;SDS011;46263;44.726;10.396;2023-08-20T16:01:18;5.97;;;5.43;;
60416;SDS011;46263;44.726;10.396;2023-08-20T16:03:44;6.32;;;5.72;;
60416;SDS011;46263;44.726;10.396;2023-08-20T16:06:09;9.18;;;6.22;;
60416;SDS011;46263;44.726;10.396;2023-08-20T16:08:35;7.60;;;5.93;;
60416;SDS011;46263;44.726;10.396;2023-08-20T16:11:01;8.48;;;5.60;;
60416;SDS011;46263;44.726;10.396;2023-08-20T16:13:28;5.55;;;5.03;;
60416;SDS011;46263;44.726;10.396;2023-08-20T16:15:54;9.30;;;5.72;;
60416;SDS011;46263;44.726;10.396;2023-08-20T16:18:20;6.10;;;5.55;;
60416;SDS011;46263;44.726;10.396;2023-08-20T16:20:45;5.80;;;5.25;;
60416;SDS011;46263;44.726;10.396;2023-08-20T16:23:11;10.30;;;5.72;;
60416;SDS011;46263;44.726;10.396;2023-08-20T16:25:36;6.43;;;5.50;;
60416;SDS011;46263;44.726;10.396;2023-08-20T16:28:02;5.63;;;4.95;;
60416;SDS011;46263;44.726;10.396;2023-08-20T16:30:28;7.65;;;5.35;;
60416;SDS011;46263;44.726;10.396;2023-08-20T16:32:53;6.32;;;5.78;;
60416;SDS011;46263;44.726;10.396;2023-08-20T16:35:18;7.07;;;5.57;;
60416;SDS011;46263;44.726;10.396;2023-08-20T16:37:44;9.30;;;5.53;;
60416;SDS011;46263;44.726;10.396;2023-08-20T16:40:21;8.15;;;5.50;;
60416;SDS011;46263;44.726;10.396;2023-08-20T16:42:48;6.72;;;6.07;;
60416;SDS011;46263;44.726;10.396;2023-08-20T16:45:14;7.97;;;6.05;;
60416;SDS011;46263;44.726;10.396;2023-08-20T16:47:39;6.60;;;5.43;;
60416;SDS011;46263;44.726;10.396;2023-08-20T16:50:05;6.30;;;5.70;;
60416;SDS011;46263;44.726;10.396;2023-08-20T16:52:30;9.00;;;5.72;;
60416;SDS011;46263;44.726;10.396;2023-08-20T16:54:56;7.47;;;5.85;;
60416;SDS011;46263;44.726;10.396;2023-08-20T16:57:21;6.82;;;6.15;;
60416;SDS011;46263;44.726;10.396;2023-08-20T16:59:48;6.60;;;6.00;;
60416;SDS011;46263;44.726;10.396;2023-08-20T17:02:13;6.75;;;5.78;;
60416;SDS011;46263;44.726;10.396;2023-08-20T17:04:39;6.47;;;5.85;;
60416;SDS011;46263;44.726;10.396;2023-08-20T17:07:04;8.77;;;6.20;;
60416;SDS011;46263;44.726;10.396;2023-08-20T17:09:30;8.60;;;5.97;;
60416;SDS011;46263;44.726;10.396;2023-08-20T17:11:55;7.15;;;5.80;;
60416;SDS011;46263;44.726;10.396;2023-08-20T17:14:21;7.05;;;6.45;;
60416;SDS011;46263;44.726;10.396;2023-08-20T17:16:47;8.15;;;6.22;;
60416;SDS011;46263;44.726;10.396;2023-08-20T17:19:13;7.55;;;5.60;;
60416;SDS011;46263;44.726;10.396;2023-08-20T17:21:39;8.02;;;5.30;;
60416;SDS011;46263;44.726;10.396;2023-08-20T17:24:04;8.10;;;6.32;;
60416;SDS011;46263;44.726;10.396;2023-08-20T17:26:29;6.88;;;6.25;;
60416;SDS011;46263;44.726;10.396;2023-08-20T17:28:55;6.80;;;6.10;;
60416;SDS011;46263;44.726;10.396;2023-08-20T17:31:20;6.88;;;6.20;;
60416;SDS011;46263;44.726;10.396;2023-08-20T17:33:46;6.28;;;5.68;;
60416;SDS011;46263;44.726;10.396;2023-08-20T17:36:11;7.07;;;6.35;;
60416;SDS011;46263;44.726;10.396;2023-08-20T17:38:36;6.60;;;6.10;;
60416;SDS011;46263;44.726;10.396;2023-08-20T17:41:06;6.68;;;5.70;;
60416;SDS011;46263;44.726;10.396;2023-08-20T17:43:31;6.63;;;6.03;;
60416;SDS011;46263;44.726;10.396;2023-08-20T17:45:57;7.13;;;5.65;;
60416;SDS011;46263;44.726;10.396;2023-08-20T17:48:23;8.02;;;6.15;;
60416;SDS011;46263;44.726;10.396;2023-08-20T17:50:48;6.40;;;5.80;;
60416;SDS011;46263;44.726;10.396;2023-08-20T17:53:15;7.20;;;5.95;;
60416;SDS011;46263;44.726;10.396;2023-08-20T17:55:41;11.57;;;6.25;;
60416;SDS011;46263;44.726;10.396;2023-08-20T17:58:07;9.70;;;6.55;;
60416;SDS011;46263;44.726;10.396;2023-08-20T18:00:32;8.65;;;6.20;;
60416;SDS011;46263;44.726;10.396;2023-08-20T18:02:58;10.10;;;6.07;;
60416;SDS011;46263;44.726;10.396;2023-08-20T18:05:24;7.10;;;5.97;;
60416;SDS011;46263;44.726;10.396;2023-08-20T18:07:51;7.63;;;5.57;;
60416;SDS011;46263;44.726;10.396;2023-08-20T18:10:18;6.38;;;5.78;;
60416;SDS011;46263;44.726;10.396;2023-08-20T18:12:46;11.48;;;6.13;;
60416;SDS011;46263;44.726;10.396;2023-08-20T18:15:12;9.00;;;5.97;;
60416;SDS011;46263;44.726;10.396;2023-08-20T18:17:37;7.55;;;6.45;;
60416;SDS011;46263;44.726;10.396;2023-08-20T18:20:03;6.32;;;5.70;;
60416;SDS011;46263;44.726;10.396;2023-08-20T18:22:29;11.27;;;6.60;;
60416;SDS011;46263;44.726;10.396;2023-08-20T18:24:54;9.45;;;6.30;;
60416;SDS011;46263;44.726;10.396;2023-08-20T18:27:20;12.18;;;6.00;;
60416;SDS011;46263;44.726;10.396;2023-08-20T18:29:45;7.20;;;5.88;;
60416;SDS011;46263;44.726;10.396;2023-08-20T18:32:10;6.68;;;5.97;;
60416;SDS011;46263;44.726;10.396;2023-08-20T18:34:36;7.43;;;6.65;;
60416;SDS011;46263;44.726;10.396;2023-08-20T18:37:03;8.05;;;5.97;;
60416;SDS011;46263;44.726;10.396;2023-08-20T18:39:28;7.13;;;6.30;;
60416;SDS011;46263;44.726;10.396;2023-08-20T18:41:54;6.80;;;6.20;;
60416;SDS011;46263;44.726;10.396;2023-08-20T18:44:20;9.45;;;6.30;;
60416;SDS011;46263;44.726;10.396;2023-08-20T18:46:45;9.68;;;6.28;;
60416;SDS011;46263;44.726;10.396;2023-08-20T18:49:11;21.38;;;6.43;;
60416;SDS011;46263;44.726;10.396;2023-08-20T18:51:36;12.07;;;7.07;;
60416;SDS011;46263;44.726;10.396;2023-08-20T18:54:01;7.47;;;6.30;;
60416;SDS011;46263;44.726;10.396;2023-08-20T18:56:28;9.18;;;6.90;;
60416;SDS011;46263;44.726;10.396;2023-08-20T18:58:53;7.07;;;6.28;;
60416;SDS011;46263;44.726;10.396;2023-08-20T19:01:19;7.22;;;6.30;;
60416;SDS011;46263;44.726;10.396;2023-08-20T19:03:44;9.73;;;6.30;;
60416;SDS011;46263;44.726;10.396;2023-08-20T19:06:09;13.43;;;6.70;;
60416;SDS011;46263;44.726;10.396;2023-08-20T19:08:35;7.38;;;6.30;;
60416;SDS011;46263;44.726;10.396;2023-08-20T19:11:01;10.50;;;5.90;;
60416;SDS011;46263;44.726;10.396;2023-08-20T19:13:28;7.88;;;6.25;;
60416;SDS011;46263;44.726;10.396;2023-08-20T19:15:54;9.23;;;6.10;;
60416;SDS011;46263;44.726;10.396;2023-08-20T19:18:20;6.78;;;6.05;;
60416;SDS011;46263;44.726;10.396;2023-08-20T19:20:47;7.70;;;6.53;;
60416;SDS011;46263;44.726;10.396;2023-08-20T19:23:13;11.00;;;6.18;;
60416;SDS011;46263;44.726;10.396;2023-08-20T19:25:39;14.18;;;6.32;;
60416;SDS011;46263;44.726;10.396;2023-08-20T19:28:05;8.80;;;6.18;;
60416;SDS011;46263;44.726;10.396;2023-08-20T19:30:33;8.68;;;6.03;;
60416;SDS011;46263;44.726;10.396;2023-08-20T19:32:59;13.02;;;6.38;;
60416;SDS011;46263;44.726;10.396;2023-08-20T19:35:26;9.60;;;6.40;;
60416;SDS011;46263;44.726;10.396;2023-08-20T19:37:53;9.40;;;6.57;;
60416;SDS011;46263;44.726;10.396;2023-08-20T19:40:18;6.60;;;6.07;;
60416;SDS011;46263;44.726;10.396;2023-08-20T19:42:44;6.40;;;5.80;;
60416;SDS011;46263;44.726;10.396;2023-08-20T19:45:10;7.45;;;5.93;;
60416;SDS011;46263;44.726;10.396;2023-08-20T19:47:36;6.57;;;5.78;;
60416;SDS011;46263;44.726;10.396;2023-08-20T19:50:02;6.25;;;5.65;;
60416;SDS011;46263;44.726;10.396;2023-08-20T19:52:27;7.70;;;5.82;;
60416;SDS011;46263;44.726;10.396;2023-08-20T19:54:53;7.97;;;6.28;;
60416;SDS011;46263;44.726;10.396;2023-08-20T19:57:18;7.03;;;6.32;;
60416;SDS011;46263;44.726;10.396;2023-08-20T19:59:44;6.93;;;6.13;;
60416;SDS011;46263;44.726;10.396;2023-08-20T20:02:09;7.45;;;5.95;;
60416;SDS011;46263;44.726;10.396;2023-08-20T20:04:34;6.75;;;6.05;;
60416;SDS011;46263;44.726;10.396;2023-08-20T20:07:00;6.93;;;6.25;;
60416;SDS011;46263;44.726;10.396;2023-08-20T20:09:25;7.70;;;6.07;;
60416;SDS011;46263;44.726;10.396;2023-08-20T20:11:51;6.95;;;6.25;;
60416;SDS011;46263;44.726;10.396;2023-08-20T20:14:16;7.00;;;6.30;;
60416;SDS011;46263;44.726;10.396;2023-08-20T20:16:45;9.82;;;7.05;;
60416;SDS011;46263;44.726;10.396;2023-08-20T20:19:10;7.20;;;6.20;;
60416;SDS011;46263;44.726;10.396;2023-08-20T20:21:36;6.88;;;6.28;;
60416;SDS011;46263;44.726;10.396;2023-08-20T20:24:04;7.80;;;6.43;;
60416;SDS011;46263;44.726;10.396;2023-08-20T20:26:29;7.85;;;6.32;;
60416;SDS011;46263;44.726;10.396;2023-08-20T20:28:55;10.95;;;6.72;;
60416;SDS011;46263;44.726;10.396;2023-08-20T20:31:21;6.95;;;6.30;;
60416;SDS011;46263;44.726;10.396;2023-08-20T20:33:46;7.00;;;6.10;;
60416;SDS011;46263;44.726;10.396;2023-08-20T20:36:12;10.18;;;6.32;;
60416;SDS011;46263;44.726;10.396;2023-08-20T20:38:37;6.85;;;6.15;;
60416;SDS011;46263;44.726;10.396;2023-08-20T20:41:03;8.25;;;6.43;;
60416;SDS011;46263;44.726;10.396;2023-08-20T20:43:31;10.07;;;6.55;;
60416;SDS011;46263;44.726;10.396;2023-08-20T20:45:57;7.85;;;6.82;;
60416;SDS011;46263;44.726;10.396;2023-08-20T20:48:23;7.22;;;6.60;;
60416;SDS011;46263;44.726;10.396;2023-08-20T20:50:48;8.50;;;7.03;;
60416;SDS011;46263;44.726;10.396;2023-08-20T20:53:14;7.75;;;6.90;;
60416;SDS011;46263;44.726;10.396;2023-08-20T20:55:39;8.05;;;7.15;;
60416;SDS011;46263;44.726;10.396;2023-08-20T20:58:05;7.40;;;6.70;;
60416;SDS011;46263;44.726;10.396;2023-08-20T21:00:31;7.55;;;6.85;;
60416;SDS011;46263;44.726;10.396;2023-08-20T21:02:57;9.45;;;7.05;;
60416;SDS011;46263;44.726;10.396;2023-08-20T21:05:22;7.75;;;6.90;;
60416;SDS011;46263;44.726;10.396;2023-08-20T21:07:48;9.60;;;7.25;;
60416;SDS011;46263;44.726;10.396;2023-08-20T21:10:13;8.15;;;6.97;;
60416;SDS011;46263;44.726;10.396;2023-08-20T21:12:39;8.82;;;6.88;;
60416;SDS011;46263;44.726;10.396;2023-08-20T21:15:05;7.65;;;6.78;;
60416;SDS011;46263;44.726;10.396;2023-08-20T21:17:32;8.02;;;6.80;;
60416;SDS011;46263;44.726;10.396;2023-08-20T21:19:57;7.78;;;7.00;;
60416;SDS011;46263;44.726;10.396;2023-08-20T21:22:24;10.48;;;7.22;;
60416;SDS011;46263;44.726;10.396;2023-08-20T21:24:50;8.68;;;7.25;;
60416;SDS011;46263;44.726;10.396;2023-08-20T21:27:15;7.88;;;6.75;;
60416;SDS011;46263;44.726;10.396;2023-08-20T21:29:41;8.50;;;6.65;;
60416;SDS011;46263;44.726;10.396;2023-08-20T21:32:06;8.48;;;6.30;;
60416;SDS011;46263;44.726;10.396;2023-08-20T21:34:32;7.25;;;6.53;;
60416;SDS011;46263;44.726;10.396;2023-08-20T21:36:58;7.53;;;6.90;;
60416;SDS011;46263;44.726;10.396;2023-08-20T21:39:25;7.97;;;7.07;;
60416;SDS011;46263;44.726;10.396;2023-08-20T21:41:51;8.93;;;7.50;;
60416;SDS011;46263;44.726;10.396;2023-08-20T21:44:16;8.80;;;7.90;;
60416;SDS011;46263;44.726;10.396;2023-08-20T21:46:41;10.13;;;8.52;;
60416;SDS011;46263;44.726;10.396;2023-08-20T21:49:07;9.90;;;7.95;;
60416;SDS011;46263;44.726;10.396;2023-08-20T21:51:32;8.10;;;7.30;;
60416;SDS011;46263;44.726;10.396;2023-08-20T21:53:58;8.07;;;7.38;;
60416;SDS011;46263;44.726;10.396;2023-08-20T21:56:25;8.73;;;7.85;;
60416;SDS011;46263;44.726;10.396;2023-08-20T21:58:50;8.18;;;7.43;;
60416;SDS011;46263;44.726;10.396;2023-08-20T22:01:16;12.38;;;7.63;;
60416;SDS011;46263;44.726;10.396;2023-08-20T22:03:41;10.25;;;7.05;;
60416;SDS011;46263;44.726;10.396;2023-08-20T22:06:07;10.43;;;7.60;;
60416;SDS011;46263;44.726;10.396;2023-08-20T22:08:32;8.40;;;7.05;;
60416;SDS011;46263;44.726;10.396;2023-08-20T22:10:58;8.20;;;7.22;;
60416;SDS011;46263;44.726;10.396;2023-08-20T22:13:25;7.10;;;6.47;;
60416;SDS011;46263;44.726;10.396;2023-08-20T22:15:51;8.82;;;6.95;;
60416;SDS011;46263;44.726;10.396;2023-08-20T22:18:17;7.13;;;6.32;;
60416;SDS011;46263;44.726;10.396;2023-08-20T22:20:43;7.22;;;6.43;;
60416;SDS011;46263;44.726;10.396;2023-08-20T22:23:09;7.90;;;7.10;;
60416;SDS011;46263;44.726;10.396;2023-08-20T22:25:34;8.60;;;7.07;;
60416;SDS011;46263;44.726;10.396;2023-08-20T22:27:59;8.95;;;6.32;;
60416;SDS011;46263;44.726;10.396;2023-08-20T22:30:25;7.05;;;6.35;;